sensor_id;sensor_type;location;lat;lon;timestamp;pressure;altitude;pressure_sealevel;temperature
72278;BMP280;61204;49.980;8.358;2022-08-01T04:42:53;100705.25;;;19.98
72278;BMP280;61204;49.980;8.358;2022-08-01T04:45:19;100715.31;;;20.29
72278;BMP280;61204;49.980;8.358;2022-08-01T04:47:47;100718.44;;;20.64
72278;BMP280;61204;49.980;8.358;2022-08-01T04:50:14;100717.53;;;20.81
72278;BMP280;61204;49.980;8.358;2022-08-01T04:52:40;100715.53;;;21.09
72278;BMP280;61204;49.980;8.358;2022-08-01T04:55:07;100718.47;;;21.41
72278;BMP280;61204;49.980;8.358;2022-08-01T04:57:36;100715.25;;;21.51
72278;BMP280;61204;49.980;8.358;2022-08-01T05:00:08;100715.47;;;21.61
72278;BMP280;61204;49.980;8.358;2022-08-01T05:02:35;100717.38;;;21.80
72278;BMP280;61204;49.980;8.358;2022-08-01T05:05:02;100717.00;;;21.94
72278;BMP280;61204;49.980;8.358;2022-08-01T05:07:30;100725.88;;;22.16
72278;BMP280;61204;49.980;8.358;2022-08-01T05:09:56;100718.34;;;22.55
72278;BMP280;61204;49.980;8.358;2022-08-01T05:12:21;100723.91;;;22.89
72278;BMP280;61204;49.980;8.358;2022-08-01T05:14:47;100717.47;;;23.18
72278;BMP280;61204;49.980;8.358;2022-08-01T05:17:12;100726.16;;;23.33
72278;BMP280;61204;49.980;8.358;2022-08-01T05:19:39;100720.09;;;23.46
72278;BMP280;61204;49.980;8.358;2022-08-01T05:22:07;100722.53;;;23.66
72278;BMP280;61204;49.980;8.358;2022-08-01T05:24:38;100730.91;;;23.26
72278;BMP280;61204;49.980;8.358;2022-08-01T05:27:05;100725.69;;;23.06
72278;BMP280;61204;49.980;8.358;2022-08-01T05:29:33;100725.25;;;22.84
72278;BMP280;61204;49.980;8.358;2022-08-01T05:31:59;100733.59;;;22.82
72278;BMP280;61204;49.980;8.358;2022-08-01T05:34:26;100733.31;;;22.70
72278;BMP280;61204;49.980;8.358;2022-08-01T05:36:52;100735.38;;;23.01
72278;BMP280;61204;49.980;8.358;2022-08-01T05:39:18;100729.84;;;23.43
72278;BMP280;61204;49.980;8.358;2022-08-01T05:41:44;100736.94;;;23.95
72278;BMP280;61204;49.980;8.358;2022-08-01T05:44:10;100725.28;;;23.64
72278;BMP280;61204;49.980;8.358;2022-08-01T05:46:36;100734.47;;;23.31
72278;BMP280;61204;49.980;8.358;2022-08-01T05:49:04;100735.66;;;23.17
72278;BMP280;61204;49.980;8.358;2022-08-01T05:51:30;100733.00;;;22.88
72278;BMP280;61204;49.980;8.358;2022-08-01T05:53:56;100736.44;;;22.84
72278;BMP280;61204;49.980;8.358;2022-08-01T05:56:23;100747.00;;;23.26
72278;BMP280;61204;49.980;8.358;2022-08-01T05:58:50;100749.63;;;24.00
72278;BMP280;61204;49.980;8.358;2022-08-01T06:01:17;100740.22;;;24.84
72278;BMP280;61204;49.980;8.358;2022-08-01T06:03:44;100743.81;;;25.71
72278;BMP280;61204;49.980;8.358;2022-08-01T06:06:11;100737.22;;;26.37
72278;BMP280;61204;49.980;8.358;2022-08-01T06:08:37;100742.91;;;26.65
72278;BMP280;61204;49.980;8.358;2022-08-01T06:11:02;100738.81;;;27.19
72278;BMP280;61204;49.980;8.358;2022-08-01T06:13:28;100737.38;;;27.18
72278;BMP280;61204;49.980;8.358;2022-08-01T06:15:54;100743.63;;;26.64
72278;BMP280;61204;49.980;8.358;2022-08-01T06:18:19;100746.72;;;25.83
72278;BMP280;61204;49.980;8.358;2022-08-01T06:20:45;100753.41;;;25.41
72278;BMP280;61204;49.980;8.358;2022-08-01T06:23:11;100757.47;;;26.17
72278;BMP280;61204;49.980;8.358;2022-08-01T06:25:38;100759.91;;;27.20
72278;BMP280;61204;49.980;8.358;2022-08-01T06:28:04;100761.97;;;27.86
72278;BMP280;61204;49.980;8.358;2022-08-01T06:30:30;100763.25;;;28.36
72278;BMP280;61204;49.980;8.358;2022-08-01T06:32:55;100757.50;;;28.56
72278;BMP280;61204;49.980;8.358;2022-08-01T06:35:23;100756.56;;;28.97
72278;BMP280;61204;49.980;8.358;2022-08-01T06:37:49;100758.91;;;29.51
72278;BMP280;61204;49.980;8.358;2022-08-01T06:40:15;100758.44;;;29.96
72278;BMP280;61204;49.980;8.358;2022-08-01T06:42:41;100750.81;;;29.84
72278;BMP280;61204;49.980;8.358;2022-08-01T06:45:11;100760.19;;;28.77
72278;BMP280;61204;49.980;8.358;2022-08-01T06:47:39;100763.84;;;28.55
72278;BMP280;61204;49.980;8.358;2022-08-01T06:50:08;100768.84;;;28.44
72278;BMP280;61204;49.980;8.358;2022-08-01T06:52:35;100765.41;;;29.38
72278;BMP280;61204;49.980;8.358;2022-08-01T06:55:01;100756.56;;;29.76
72278;BMP280;61204;49.980;8.358;2022-08-01T06:57:28;100759.53;;;29.60
72278;BMP280;61204;49.980;8.358;2022-08-01T06:59:54;100762.78;;;29.13
72278;BMP280;61204;49.980;8.358;2022-08-01T07:02:21;100766.88;;;29.28
72278;BMP280;61204;49.980;8.358;2022-08-01T07:04:48;100763.28;;;28.26
72278;BMP280;61204;49.980;8.358;2022-08-01T07:07:14;100766.13;;;28.16
72278;BMP280;61204;49.980;8.358;2022-08-01T07:09:39;100773.09;;;28.35
72278;BMP280;61204;49.980;8.358;2022-08-01T07:12:08;100766.09;;;28.26
72278;BMP280;61204;49.980;8.358;2022-08-01T07:14:34;100771.78;;;28.18
72278;BMP280;61204;49.980;8.358;2022-08-01T07:17:00;100770.44;;;27.91
72278;BMP280;61204;49.980;8.358;2022-08-01T07:19:26;100763.91;;;28.45
72278;BMP280;61204;49.980;8.358;2022-08-01T07:21:52;100762.53;;;28.38
72278;BMP280;61204;49.980;8.358;2022-08-01T07:24:18;100761.81;;;28.35
72278;BMP280;61204;49.980;8.358;2022-08-01T07:26:45;100766.03;;;28.38
72278;BMP280;61204;49.980;8.358;2022-08-01T07:29:14;100761.91;;;28.17
72278;BMP280;61204;49.980;8.358;2022-08-01T07:31:40;100762.34;;;28.70
72278;BMP280;61204;49.980;8.358;2022-08-01T07:34:07;100765.53;;;29.23
72278;BMP280;61204;49.980;8.358;2022-08-01T07:36:33;100749.53;;;30.28
72278;BMP280;61204;49.980;8.358;2022-08-01T07:38:58;100741.00;;;30.80
72278;BMP280;61204;49.980;8.358;2022-08-01T07:41:24;100749.72;;;30.16
72278;BMP280;61204;49.980;8.358;2022-08-01T07:43:50;100750.53;;;30.07
72278;BMP280;61204;49.980;8.358;2022-08-01T07:46:16;100749.66;;;30.20
72278;BMP280;61204;49.980;8.358;2022-08-01T07:48:42;100742.66;;;30.66
72278;BMP280;61204;49.980;8.358;2022-08-01T07:51:08;100742.13;;;30.54
72278;BMP280;61204;49.980;8.358;2022-08-01T07:53:35;100739.69;;;30.74
72278;BMP280;61204;49.980;8.358;2022-08-01T07:56:02;100736.34;;;31.07
72278;BMP280;61204;49.980;8.358;2022-08-01T07:58:31;100742.78;;;31.03
72278;BMP280;61204;49.980;8.358;2022-08-01T11:58:59;100683.53;;;38.26
72278;BMP280;61204;49.980;8.358;2022-08-01T12:01:25;100677.09;;;37.23
72278;BMP280;61204;49.980;8.358;2022-08-01T12:03:55;100682.44;;;36.52
72278;BMP280;61204;49.980;8.358;2022-08-01T12:06:28;100681.34;;;37.39
72278;BMP280;61204;49.980;8.358;2022-08-01T12:08:54;100667.38;;;38.88
72278;BMP280;61204;49.980;8.358;2022-08-01T12:12:02;100670.81;;;39.56
72278;BMP280;61204;49.980;8.358;2022-08-01T12:19:27;100668.28;;;38.44
72278;BMP280;61204;49.980;8.358;2022-08-01T12:22:54;100663.88;;;40.24
72278;BMP280;61204;49.980;8.358;2022-08-01T12:29:42;100658.88;;;40.00
72278;BMP280;61204;49.980;8.358;2022-08-01T12:32:46;100650.22;;;40.48
72278;BMP280;61204;49.980;8.358;2022-08-01T12:35:22;100657.81;;;39.44
72278;BMP280;61204;49.980;8.358;2022-08-01T12:38:06;100661.47;;;35.53
72278;BMP280;61204;49.980;8.358;2022-08-01T12:44:57;100666.56;;;35.86
72278;BMP280;61204;49.980;8.358;2022-08-01T12:47:26;100656.38;;;35.37
72278;BMP280;61204;49.980;8.358;2022-08-01T12:49:53;100663.75;;;35.11
72278;BMP280;61204;49.980;8.358;2022-08-01T12:52:19;100653.50;;;34.78
72278;BMP280;61204;49.980;8.358;2022-08-01T12:55:08;100660.66;;;34.36
72278;BMP280;61204;49.980;8.358;2022-08-01T12:57:41;100663.44;;;33.47
72278;BMP280;61204;49.980;8.358;2022-08-01T13:00:13;100650.91;;;34.08
72278;BMP280;61204;49.980;8.358;2022-08-01T13:03:00;100657.84;;;34.57
72278;BMP280;61204;49.980;8.358;2022-08-01T13:05:50;100657.13;;;34.77
72278;BMP280;61204;49.980;8.358;2022-08-01T13:08:32;100649.72;;;34.44
72278;BMP280;61204;49.980;8.358;2022-08-01T13:11:10;100652.31;;;34.53
72278;BMP280;61204;49.980;8.358;2022-08-01T13:13:49;100660.28;;;34.25
72278;BMP280;61204;49.980;8.358;2022-08-01T13:16:21;100654.91;;;34.38
72278;BMP280;61204;49.980;8.358;2022-08-01T13:18:52;100659.31;;;33.66
72278;BMP280;61204;49.980;8.358;2022-08-01T13:21:26;100651.94;;;34.42
72278;BMP280;61204;49.980;8.358;2022-08-01T13:24:09;100656.31;;;34.39
72278;BMP280;61204;49.980;8.358;2022-08-01T13:29:39;100650.66;;;34.99
72278;BMP280;61204;49.980;8.358;2022-08-01T13:34:40;100654.25;;;34.37
72278;BMP280;61204;49.980;8.358;2022-08-01T13:37:06;100660.13;;;34.73
72278;BMP280;61204;49.980;8.358;2022-08-01T13:39:33;100658.03;;;34.92
72278;BMP280;61204;49.980;8.358;2022-08-01T13:42:16;100664.44;;;34.72
72278;BMP280;61204;49.980;8.358;2022-08-01T13:44:42;100649.31;;;34.57
72278;BMP280;61204;49.980;8.358;2022-08-01T13:47:11;100651.78;;;34.87
72278;BMP280;61204;49.980;8.358;2022-08-01T13:49:37;100648.28;;;34.85
72278;BMP280;61204;49.980;8.358;2022-08-01T13:52:03;100646.66;;;34.71
72278;BMP280;61204;49.980;8.358;2022-08-01T13:54:31;100639.78;;;34.43
72278;BMP280;61204;49.980;8.358;2022-08-01T13:56:57;100648.81;;;34.06
72278;BMP280;61204;49.980;8.358;2022-08-01T13:59:24;100657.63;;;33.75
72278;BMP280;61204;49.980;8.358;2022-08-01T14:01:49;100643.09;;;33.86
72278;BMP280;61204;49.980;8.358;2022-08-01T14:04:15;100645.94;;;33.63
72278;BMP280;61204;49.980;8.358;2022-08-01T14:06:42;100654.56;;;33.34
72278;BMP280;61204;49.980;8.358;2022-08-01T14:09:07;100661.94;;;33.50
72278;BMP280;61204;49.980;8.358;2022-08-01T14:11:33;100655.84;;;33.39
72278;BMP280;61204;49.980;8.358;2022-08-01T14:13:59;100654.75;;;33.03
72278;BMP280;61204;49.980;8.358;2022-08-01T14:16:24;100647.00;;;32.73
72278;BMP280;61204;49.980;8.358;2022-08-01T14:18:50;100640.19;;;32.35
72278;BMP280;61204;49.980;8.358;2022-08-01T14:21:16;100641.50;;;32.38
72278;BMP280;61204;49.980;8.358;2022-08-01T14:23:43;100657.72;;;32.41
72278;BMP280;61204;49.980;8.358;2022-08-01T14:26:09;100649.97;;;32.40
72278;BMP280;61204;49.980;8.358;2022-08-01T14:28:38;100659.91;;;32.10
72278;BMP280;61204;49.980;8.358;2022-08-01T14:31:05;100648.09;;;31.99
72278;BMP280;61204;49.980;8.358;2022-08-01T14:33:31;100651.88;;;31.88
72278;BMP280;61204;49.980;8.358;2022-08-01T14:35:57;100649.72;;;32.21
72278;BMP280;61204;49.980;8.358;2022-08-01T14:38:23;100649.25;;;32.10
72278;BMP280;61204;49.980;8.358;2022-08-01T14:40:49;100649.91;;;32.13
72278;BMP280;61204;49.980;8.358;2022-08-01T14:43:18;100654.03;;;32.18
72278;BMP280;61204;49.980;8.358;2022-08-01T14:45:46;100654.34;;;32.06
72278;BMP280;61204;49.980;8.358;2022-08-01T14:48:17;100649.91;;;31.82
72278;BMP280;61204;49.980;8.358;2022-08-01T14:50:43;100645.16;;;31.72
72278;BMP280;61204;49.980;8.358;2022-08-01T14:53:09;100643.53;;;31.48
72278;BMP280;61204;49.980;8.358;2022-08-01T14:55:36;100641.47;;;31.45
72278;BMP280;61204;49.980;8.358;2022-08-01T14:58:02;100637.94;;;31.44
72278;BMP280;61204;49.980;8.358;2022-08-01T15:00:27;100643.97;;;31.24
72278;BMP280;61204;49.980;8.358;2022-08-01T15:02:53;100646.13;;;31.24
72278;BMP280;61204;49.980;8.358;2022-08-01T15:17:20;100667.84;;;30.06
72278;BMP280;61204;49.980;8.358;2022-08-01T15:19:51;100665.69;;;30.11
72278;BMP280;61204;49.980;8.358;2022-08-01T15:22:20;100665.59;;;30.15
72278;BMP280;61204;49.980;8.358;2022-08-01T15:24:49;100667.34;;;30.41
72278;BMP280;61204;49.980;8.358;2022-08-01T15:27:17;100668.31;;;30.23
72278;BMP280;61204;49.980;8.358;2022-08-01T15:29:44;100664.69;;;30.28
72278;BMP280;61204;49.980;8.358;2022-08-01T15:32:10;100674.59;;;30.29
72278;BMP280;61204;49.980;8.358;2022-08-01T15:34:37;100671.63;;;30.37
72278;BMP280;61204;49.980;8.358;2022-08-01T15:37:04;100666.66;;;30.40
72278;BMP280;61204;49.980;8.358;2022-08-01T15:39:32;100676.69;;;29.78
72278;BMP280;61204;49.980;8.358;2022-08-01T15:42:02;100679.53;;;29.06
72278;BMP280;61204;49.980;8.358;2022-08-01T15:44:33;100672.72;;;28.81
72278;BMP280;61204;49.980;8.358;2022-08-01T15:47:01;100662.81;;;28.80
72278;BMP280;61204;49.980;8.358;2022-08-01T15:49:28;100669.91;;;28.79
72278;BMP280;61204;49.980;8.358;2022-08-01T15:51:55;100672.81;;;28.65
72278;BMP280;61204;49.980;8.358;2022-08-01T15:54:21;100669.06;;;28.94
72278;BMP280;61204;49.980;8.358;2022-08-01T15:56:47;100675.91;;;29.18
72278;BMP280;61204;49.980;8.358;2022-08-01T15:59:12;100683.75;;;29.11
72278;BMP280;61204;49.980;8.358;2022-08-01T16:01:39;100675.88;;;29.22
72278;BMP280;61204;49.980;8.358;2022-08-01T16:04:06;100676.56;;;29.24
72278;BMP280;61204;49.980;8.358;2022-08-01T16:06:34;100675.75;;;29.38
72278;BMP280;61204;49.980;8.358;2022-08-01T16:09:01;100678.34;;;29.56
72278;BMP280;61204;49.980;8.358;2022-08-01T16:11:28;100673.72;;;29.24
72278;BMP280;61204;49.980;8.358;2022-08-01T16:13:54;100675.22;;;29.83
72278;BMP280;61204;49.980;8.358;2022-08-01T16:16:20;100673.84;;;29.78
72278;BMP280;61204;49.980;8.358;2022-08-01T16:18:47;100667.06;;;29.54
72278;BMP280;61204;49.980;8.358;2022-08-01T16:21:14;100657.44;;;29.31
72278;BMP280;61204;49.980;8.358;2022-08-01T16:23:41;100657.16;;;29.55
72278;BMP280;61204;49.980;8.358;2022-08-01T16:26:08;100666.03;;;29.84
72278;BMP280;61204;49.980;8.358;2022-08-01T16:28:35;100667.50;;;29.79
72278;BMP280;61204;49.980;8.358;2022-08-01T16:31:02;100663.03;;;29.96
72278;BMP280;61204;49.980;8.358;2022-08-01T16:33:29;100664.63;;;29.81
72278;BMP280;61204;49.980;8.358;2022-08-01T16:35:55;100663.38;;;29.68
72278;BMP280;61204;49.980;8.358;2022-08-01T16:38:21;100657.84;;;29.60
72278;BMP280;61204;49.980;8.358;2022-08-01T16:40:48;100659.03;;;29.79
72278;BMP280;61204;49.980;8.358;2022-08-01T16:43:18;100664.94;;;29.57
72278;BMP280;61204;49.980;8.358;2022-08-01T16:45:45;100656.59;;;29.43
72278;BMP280;61204;49.980;8.358;2022-08-01T16:48:12;100649.16;;;29.13
72278;BMP280;61204;49.980;8.358;2022-08-01T16:50:41;100654.25;;;28.96
72278;BMP280;61204;49.980;8.358;2022-08-01T16:53:07;100647.22;;;28.93
72278;BMP280;61204;49.980;8.358;2022-08-01T16:55:33;100653.63;;;28.83
72278;BMP280;61204;49.980;8.358;2022-08-01T16:57:59;100655.75;;;28.83
72278;BMP280;61204;49.980;8.358;2022-08-01T17:00:25;100651.47;;;28.88
72278;BMP280;61204;49.980;8.358;2022-08-01T17:02:51;100652.94;;;28.83
72278;BMP280;61204;49.980;8.358;2022-08-01T17:05:17;100652.94;;;28.83
72278;BMP280;61204;49.980;8.358;2022-08-01T17:07:45;100655.06;;;28.80
72278;BMP280;61204;49.980;8.358;2022-08-01T17:10:11;100660.84;;;28.66
72278;BMP280;61204;49.980;8.358;2022-08-01T17:12:38;100665.13;;;28.59
72278;BMP280;61204;49.980;8.358;2022-08-01T17:15:06;100672.84;;;28.67
72278;BMP280;61204;49.980;8.358;2022-08-01T17:17:33;100670.03;;;28.61
72278;BMP280;61204;49.980;8.358;2022-08-01T17:19:58;100672.81;;;28.65
72278;BMP280;61204;49.980;8.358;2022-08-01T17:22:24;100666.66;;;28.40
72278;BMP280;61204;49.980;8.358;2022-08-01T17:24:50;100670.13;;;28.46
72278;BMP280;61204;49.980;8.358;2022-08-01T17:27:16;100677.19;;;28.47
72278;BMP280;61204;49.980;8.358;2022-08-01T17:29:44;100671.56;;;28.41
72278;BMP280;61204;49.980;8.358;2022-08-01T17:32:11;100677.78;;;28.58
72278;BMP280;61204;49.980;8.358;2022-08-01T17:34:38;100671.66;;;28.29
72278;BMP280;61204;49.980;8.358;2022-08-01T17:37:08;100677.25;;;28.35
72278;BMP280;61204;49.980;8.358;2022-08-01T17:39:34;100675.13;;;28.32
72278;BMP280;61204;49.980;8.358;2022-08-01T17:42:00;100675.13;;;28.34
72278;BMP280;61204;49.980;8.358;2022-08-01T17:44:26;100675.78;;;28.42
72278;BMP280;61204;49.980;8.358;2022-08-01T17:46:52;100672.25;;;28.48
72278;BMP280;61204;49.980;8.358;2022-08-01T17:49:18;100668.09;;;28.33
72278;BMP280;61204;49.980;8.358;2022-08-01T17:51:46;100670.19;;;28.38
72278;BMP280;61204;49.980;8.358;2022-08-01T17:54:13;100677.34;;;28.17
72278;BMP280;61204;49.980;8.358;2022-08-01T17:56:38;100677.34;;;28.09
72278;BMP280;61204;49.980;8.358;2022-08-01T17:59:04;100671.03;;;28.14
72278;BMP280;61204;49.980;8.358;2022-08-01T18:01:30;100676.69;;;28.08
72278;BMP280;61204;49.980;8.358;2022-08-01T18:03:55;100671.81;;;27.95
72278;BMP280;61204;49.980;8.358;2022-08-01T18:06:22;100671.81;;;27.95
72278;BMP280;61204;49.980;8.358;2022-08-01T18:08:49;100676.75;;;27.82
72278;BMP280;61204;49.980;8.358;2022-08-01T18:11:16;100685.22;;;27.78
72278;BMP280;61204;49.980;8.358;2022-08-01T18:13:42;100688.03;;;27.78
72278;BMP280;61204;49.980;8.358;2022-08-01T18:16:09;100690.19;;;27.71
72278;BMP280;61204;49.980;8.358;2022-08-01T18:18:37;100688.09;;;27.58
72278;BMP280;61204;49.980;8.358;2022-08-01T18:21:06;100687.41;;;27.53
72278;BMP280;61204;49.980;8.358;2022-08-01T18:23:33;100692.34;;;27.32
72278;BMP280;61204;49.980;8.358;2022-08-01T18:26:00;100686.75;;;27.24
72278;BMP280;61204;49.980;8.358;2022-08-01T18:28:31;100684.66;;;27.04
72278;BMP280;61204;49.980;8.358;2022-08-01T18:31:00;100696.59;;;26.97
72278;BMP280;61204;49.980;8.358;2022-08-01T18:33:26;100697.28;;;26.85
72278;BMP280;61204;49.980;8.358;2022-08-01T18:35:51;100697.22;;;26.73
72278;BMP280;61204;49.980;8.358;2022-08-01T18:38:17;100700.75;;;26.69
72278;BMP280;61204;49.980;8.358;2022-08-01T18:40:43;100697.91;;;26.55
72278;BMP280;61204;49.980;8.358;2022-08-01T18:43:09;100710.53;;;26.40
72278;BMP280;61204;49.980;8.358;2022-08-01T18:45:35;100709.75;;;26.25
72278;BMP280;61204;49.980;8.358;2022-08-01T18:48:01;100711.09;;;26.14
72278;BMP280;61204;49.980;8.358;2022-08-01T18:50:27;100715.28;;;26.11
72278;BMP280;61204;49.980;8.358;2022-08-01T18:52:53;100715.25;;;25.99
72278;BMP280;61204;49.980;8.358;2022-08-01T18:55:19;100726.41;;;25.91
72278;BMP280;61204;49.980;8.358;2022-08-01T18:57:45;100721.44;;;25.81
72278;BMP280;61204;49.980;8.358;2022-08-01T19:00:11;100726.94;;;25.63
72278;BMP280;61204;49.980;8.358;2022-08-01T19:02:39;100725.47;;;25.54
72278;BMP280;61204;49.980;8.358;2022-08-01T19:05:07;100727.41;;;25.37
72278;BMP280;61204;49.980;8.358;2022-08-01T19:07:34;100725.25;;;25.29
72278;BMP280;61204;49.980;8.358;2022-08-01T19:10:00;100732.81;;;25.12
72278;BMP280;61204;49.980;8.358;2022-08-01T19:12:25;100736.97;;;25.05
72278;BMP280;61204;49.980;8.358;2022-08-01T19:14:51;100741.09;;;25.00
72278;BMP280;61204;49.980;8.358;2022-08-01T19:17:17;100743.75;;;24.88
72278;BMP280;61204;49.980;8.358;2022-08-01T19:19:44;100746.53;;;24.84
72278;BMP280;61204;49.980;8.358;2022-08-01T19:22:11;100738.22;;;24.90
72278;BMP280;61204;49.980;8.358;2022-08-01T19:24:37;100745.78;;;24.79
72278;BMP280;61204;49.980;8.358;2022-08-01T19:27:06;100745.66;;;24.69
72278;BMP280;61204;49.980;8.358;2022-08-01T19:29:37;100754.69;;;24.62
72278;BMP280;61204;49.980;8.358;2022-08-01T19:32:05;100754.69;;;24.62
72278;BMP280;61204;49.980;8.358;2022-08-01T19:34:36;100763.09;;;24.60
72278;BMP280;61204;49.980;8.358;2022-08-01T19:37:24;100770.66;;;24.51
72278;BMP280;61204;49.980;8.358;2022-08-01T19:39:50;100765.66;;;24.41
72278;BMP280;61204;49.980;8.358;2022-08-01T19:42:16;100782.34;;;24.33
72278;BMP280;61204;49.980;8.358;2022-08-01T19:44:45;100779.41;;;24.23
72278;BMP280;61204;49.980;8.358;2022-08-01T19:47:14;100780.69;;;24.16
72278;BMP280;61204;49.980;8.358;2022-08-01T19:49:42;100781.22;;;24.04
72278;BMP280;61204;49.980;8.358;2022-08-01T19:52:08;100785.94;;;23.92
72278;BMP280;61204;49.980;8.358;2022-08-01T19:54:41;100789.25;;;23.82
72278;BMP280;61204;49.980;8.358;2022-08-01T19:57:12;100789.81;;;23.72
72278;BMP280;61204;49.980;8.358;2022-08-01T19:59:40;100793.19;;;23.67
72278;BMP280;61204;49.980;8.358;2022-08-01T20:02:09;100794.47;;;23.58
72278;BMP280;61204;49.980;8.358;2022-08-01T20:04:42;100796.44;;;23.51
72278;BMP280;61204;49.980;8.358;2022-08-01T20:07:08;100802.69;;;23.49
72278;BMP280;61204;49.980;8.358;2022-08-01T20:09:38;100795.75;;;23.53
72278;BMP280;61204;49.980;8.358;2022-08-01T20:12:05;100802.75;;;23.52
72278;BMP280;61204;49.980;8.358;2022-08-01T20:14:31;100795.03;;;23.52
72278;BMP280;61204;49.980;8.358;2022-08-01T20:16:58;100804.13;;;23.51
72278;BMP280;61204;49.980;8.358;2022-08-01T20:19:24;100806.94;;;23.53
72278;BMP280;61204;49.980;8.358;2022-08-01T20:21:56;100813.22;;;23.51
72278;BMP280;61204;49.980;8.358;2022-08-01T20:24:27;100809.72;;;23.53
72278;BMP280;61204;49.980;8.358;2022-08-01T20:26:58;100813.22;;;23.51
72278;BMP280;61204;49.980;8.358;2022-08-01T20:29:27;100818.75;;;23.49
72278;BMP280;61204;49.980;8.358;2022-08-01T20:31:54;100813.94;;;23.52
72278;BMP280;61204;49.980;8.358;2022-08-01T20:34:23;100813.94;;;23.52
72278;BMP280;61204;49.980;8.358;2022-08-01T20:36:50;100817.38;;;23.48
72278;BMP280;61204;49.980;8.358;2022-08-01T20:39:18;100822.81;;;23.42
72278;BMP280;61204;49.980;8.358;2022-08-01T20:41:48;100815.81;;;23.41
72278;BMP280;61204;49.980;8.358;2022-08-01T20:44:20;100813.59;;;23.33
72278;BMP280;61204;49.980;8.358;2022-08-01T20:46:49;100821.13;;;23.27
72278;BMP280;61204;49.980;8.358;2022-08-01T20:49:20;100818.88;;;23.17
72278;BMP280;61204;49.980;8.358;2022-08-01T20:51:46;100825.66;;;23.08
72278;BMP280;61204;49.980;8.358;2022-08-01T20:54:14;100820.59;;;23.00
72278;BMP280;61204;49.980;8.358;2022-08-01T20:56:56;100821.78;;;22.89
72278;BMP280;61204;49.980;8.358;2022-08-01T21:02:45;100817.34;;;22.78
72278;BMP280;61204;49.980;8.358;2022-08-01T21:05:29;100827.66;;;22.69
72278;BMP280;61204;49.980;8.358;2022-08-01T21:08:12;100824.63;;;22.59
72278;BMP280;61204;49.980;8.358;2022-08-01T21:10:47;100818.03;;;22.46
72278;BMP280;61204;49.980;8.358;2022-08-01T21:13:40;100826.88;;;22.35
72278;BMP280;61204;49.980;8.358;2022-08-01T21:16:15;100820.38;;;22.26
72278;BMP280;61204;49.980;8.358;2022-08-01T21:18:57;100827.75;;;22.13
72278;BMP280;61204;49.980;8.358;2022-08-01T21:21:31;100828.34;;;22.10
72278;BMP280;61204;49.980;8.358;2022-08-01T21:24:15;100825.31;;;22.00
72278;BMP280;61204;49.980;8.358;2022-08-01T21:26:43;100820.28;;;21.94
72278;BMP280;61204;49.980;8.358;2022-08-01T21:29:11;100823.47;;;21.82
72278;BMP280;61204;49.980;8.358;2022-08-01T21:31:39;100833.06;;;21.75
72278;BMP280;61204;49.980;8.358;2022-08-01T21:34:05;100823.66;;;21.63
72278;BMP280;61204;49.980;8.358;2022-08-01T21:36:35;100827.72;;;21.58
72278;BMP280;61204;49.980;8.358;2022-08-01T21:39:04;100833.16;;;21.53
72278;BMP280;61204;49.980;8.358;2022-08-01T21:41:31;100828.31;;;21.54
72278;BMP280;61204;49.980;8.358;2022-08-01T21:44:00;100840.19;;;21.54
72278;BMP280;61204;49.980;8.358;2022-08-01T21:46:28;100840.06;;;21.50
72278;BMP280;61204;49.980;8.358;2022-08-01T21:48:55;100852.06;;;21.55
72278;BMP280;61204;49.980;8.358;2022-08-01T21:51:35;100864.72;;;21.60
72278;BMP280;61204;49.980;8.358;2022-08-01T21:54:28;100862.03;;;21.64
72278;BMP280;61204;49.980;8.358;2022-08-01T21:57:54;100868.41;;;21.67
72278;BMP280;61204;49.980;8.358;2022-08-01T22:00:35;100867.84;;;21.72
72278;BMP280;61204;49.980;8.358;2022-08-01T22:03:21;100873.50;;;21.74
72278;BMP280;61204;49.980;8.358;2022-08-01T22:05:51;100863.16;;;21.79
72278;BMP280;61204;49.980;8.358;2022-08-01T22:08:28;100866.00;;;21.81
72278;BMP280;61204;49.980;8.358;2022-08-01T22:11:19;100860.25;;;21.75
72278;BMP280;61204;49.980;8.358;2022-08-01T22:13:53;100858.19;;;21.75
72278;BMP280;61204;49.980;8.358;2022-08-01T22:16:24;100858.13;;;21.73
72278;BMP280;61204;49.980;8.358;2022-08-01T22:18:52;100864.16;;;21.64
72278;BMP280;61204;49.980;8.358;2022-08-01T22:21:18;100868.22;;;21.61
72278;BMP280;61204;49.980;8.358;2022-08-01T22:23:45;100867.25;;;21.50
72278;BMP280;61204;49.980;8.358;2022-08-01T22:26:12;100866.28;;;21.39
72278;BMP280;61204;49.980;8.358;2022-08-01T22:28:40;100867.44;;;21.32
72278;BMP280;61204;49.980;8.358;2022-08-01T22:31:06;100866.56;;;21.26
72278;BMP280;61204;49.980;8.358;2022-08-01T22:33:36;100871.91;;;21.17
72278;BMP280;61204;49.980;8.358;2022-08-01T22:36:05;100875.75;;;21.06
72278;BMP280;61204;49.980;8.358;2022-08-01T22:38:32;100878.28;;;20.98
72278;BMP280;61204;49.980;8.358;2022-08-01T22:41:05;100875.53;;;21.00
72278;BMP280;61204;49.980;8.358;2022-08-01T22:44:00;100872.75;;;21.00
72278;BMP280;61204;49.980;8.358;2022-08-01T22:49:36;100874.59;;;20.91
72278;BMP280;61204;49.980;8.358;2022-08-01T22:52:23;100875.19;;;20.88
72278;BMP280;61204;49.980;8.358;2022-08-01T22:55:03;100872.78;;;20.78
72278;BMP280;61204;49.980;8.358;2022-08-01T22:57:58;100883.66;;;20.70
72278;BMP280;61204;49.980;8.358;2022-08-01T23:00:29;100882.81;;;20.66
72278;BMP280;61204;49.980;8.358;2022-08-01T23:03:14;100884.00;;;20.58
72278;BMP280;61204;49.980;8.358;2022-08-01T23:06:13;100886.66;;;20.54
72278;BMP280;61204;49.980;8.358;2022-08-01T23:08:55;100886.88;;;20.60
72278;BMP280;61204;49.980;8.358;2022-08-01T23:11:24;100881.44;;;20.65
72278;BMP280;61204;49.980;8.358;2022-08-01T23:13:51;100887.94;;;20.51
72278;BMP280;61204;49.980;8.358;2022-08-01T23:16:17;100883.38;;;20.40
72278;BMP280;61204;49.980;8.358;2022-08-01T23:18:44;100885.91;;;20.32
72278;BMP280;61204;49.980;8.358;2022-08-01T23:21:11;100882.94;;;20.26
72278;BMP280;61204;49.980;8.358;2022-08-01T23:23:41;100889.50;;;20.15
72278;BMP280;61204;49.980;8.358;2022-08-01T23:26:09;100896.38;;;20.12